Time;durP1;ratioP1;P1;durP2;ratioP2;P2;SDS_P1;SDS_P2;PMS_P1;PMS_P2;Temp;Humidity;BMP_temperature;BMP_pressure;BME280_temperature;BME280_humidity;BME280_pressure;Samples;Min_cycle;Max_cycle;Signal;HPM_P1;HPM_P2
2022/07/15 00:00:46;;;;;;;6.35;1.80;;;13.70;99.90;;;;;;5060853;28;20056;-92
2022/07/15 00:03:12;;;;;;;4.95;1.38;;;13.70;99.90;;;;;;5061469;28;20127;-93
2022/07/15 00:05:38;;;;;;;6.70;1.55;;;13.70;99.90;;;;;;5060912;28;20112;-93
2022/07/15 00:08:04;;;;;;;6.00;2.03;;;13.70;99.90;;;;;;5064054;28;20024;-93
2022/07/15 00:10:30;;;;;;;7.38;2.35;;;13.70;99.90;;;;;;5059072;28;20013;-92
2022/07/15 00:12:58;;;;;;;5.65;2.22;;;13.70;99.90;;;;;;5061123;28;20025;-94
2022/07/15 00:15:27;;;;;;;8.35;2.05;;;13.70;99.90;;;;;;5075558;28;20028;-92
2022/07/15 00:17:53;;;;;;;4.70;1.65;;;13.70;99.90;;;;;;5081227;28;20044;-91
2022/07/15 00:20:21;;;;;;;7.47;1.73;;;13.70;99.90;;;;;;5076113;28;20543;-94
2022/07/15 00:22:47;;;;;;;10.48;1.77;;;13.60;99.90;;;;;;5072537;28;20059;-93
2022/07/15 00:25:14;;;;;;;5.68;1.80;;;13.60;99.90;;;;;;5069566;28;20017;-92
2022/07/15 00:27:51;;;;;;;4.13;2.03;;;13.60;99.90;;;;;;5066185;28;20024;-93
2022/07/15 00:30:17;;;;;;;5.10;1.90;;;13.60;99.90;;;;;;5066459;28;20446;-95
2022/07/15 00:32:42;;;;;;;6.68;1.83;;;13.60;99.90;;;;;;5079887;28;20066;-93
2022/07/15 00:35:08;;;;;;;5.25;1.70;;;13.60;99.90;;;;;;5061567;28;20365;-93
2022/07/15 00:37:34;;;;;;;5.00;1.92;;;13.50;99.90;;;;;;5061389;28;20511;-94
2022/07/15 00:40:00;;;;;;;4.28;1.42;;;13.60;99.90;;;;;;5064602;28;20031;-93
2022/07/15 00:42:44;;;;;;;3.15;1.75;;;13.50;99.90;;;;;;5062073;28;20024;-93
2022/07/15 00:45:18;;;;;;;5.38;1.73;;;13.40;99.90;;;;;;5058689;28;20075;-94
2022/07/15 00:47:49;;;;;;;7.68;2.00;;;13.40;99.90;;;;;;5057724;28;20029;-95
2022/07/15 00:50:17;;;;;;;8.05;1.95;;;13.30;99.90;;;;;;5060502;28;20049;-94
2022/07/15 00:52:55;;;;;;;5.03;1.65;;;13.30;99.90;;;;;;5063591;28;20483;-94
2022/07/15 00:55:23;;;;;;;4.68;2.13;;;13.20;99.90;;;;;;5062203;28;20021;-95
2022/07/15 00:57:51;;;;;;;6.90;2.08;;;13.20;99.90;;;;;;5067990;28;20103;-93
2022/07/15 01:00:17;;;;;;;6.65;2.13;;;13.10;99.90;;;;;;5066635;28;20025;-94
2022/07/15 01:02:49;;;;;;;8.55;2.65;;;13.10;99.90;;;;;;5059129;28;20108;-95
2022/07/15 01:05:18;;;;;;;5.90;2.08;;;13.10;99.90;;;;;;5059589;28;20021;-94
2022/07/15 01:07:45;;;;;;;12.60;2.50;;;13.10;99.90;;;;;;5059948;28;20119;-93
2022/07/15 01:10:10;;;;;;;10.32;2.30;;;13.10;99.90;;;;;;5059528;28;20074;-93
2022/07/15 01:12:37;;;;;;;3.95;2.22;;;13.00;99.90;;;;;;5058947;28;20024;-94
2022/07/15 01:15:07;;;;;;;5.45;2.40;;;13.00;99.90;;;;;;5062251;28;20021;-94
2022/07/15 01:17:33;;;;;;;8.38;2.55;;;13.00;99.90;;;;;;5059197;28;20027;-93
2022/07/15 01:19:59;;;;;;;8.32;2.45;;;13.00;99.90;;;;;;5061202;28;20716;-94
2022/07/15 01:22:25;;;;;;;6.95;2.28;;;13.00;99.90;;;;;;5057980;28;20484;-94
2022/07/15 01:24:52;;;;;;;4.68;2.17;;;13.00;99.90;;;;;;5058776;28;20029;-94
2022/07/15 01:27:18;;;;;;;7.90;2.60;;;13.10;99.90;;;;;;5058290;28;20028;-94
2022/07/15 01:29:44;;;;;;;7.40;2.50;;;13.10;99.90;;;;;;5059891;28;20052;-94
2022/07/15 01:32:11;;;;;;;11.50;2.90;;;13.10;99.90;;;;;;5059574;28;20103;-94
2022/07/15 01:34:36;;;;;;;6.55;2.30;;;13.10;99.90;;;;;;5058153;28;20021;-95
2022/07/15 01:37:03;;;;;;;5.40;2.47;;;13.10;99.90;;;;;;5062213;28;20025;-94
2022/07/15 01:39:29;;;;;;;5.43;2.80;;;13.10;99.90;;;;;;5060038;28;20029;-94
2022/07/15 01:41:55;;;;;;;5.07;2.60;;;13.10;99.90;;;;;;5061581;28;20028;-95
2022/07/15 01:44:20;;;;;;;9.00;2.83;;;13.10;99.90;;;;;;5059138;28;20029;-95
2022/07/15 01:46:46;;;;;;;6.57;2.70;;;13.10;99.90;;;;;;5059017;28;20047;-95
2022/07/15 01:49:31;;;;;;;6.72;3.10;;;13.10;99.90;;;;;;5060544;28;20037;-93
2022/07/15 01:51:58;;;;;;;6.35;2.97;;;13.10;99.90;;;;;;5060887;28;20020;-95
2022/07/15 01:54:25;;;;;;;6.55;2.30;;;13.00;99.90;;;;;;5058577;28;20094;-93
2022/07/15 01:56:53;;;;;;;4.78;2.40;;;13.00;99.90;;;;;;5061153;28;20060;-94
2022/07/15 01:59:22;;;;;;;8.82;3.17;;;13.00;99.90;;;;;;5060113;28;20021;-96
2022/07/15 02:01:48;;;;;;;6.38;2.92;;;13.00;99.90;;;;;;5059264;28;20028;-94
2022/07/15 02:04:14;;;;;;;6.22;3.38;;;13.00;99.90;;;;;;5059866;28;20083;-94
2022/07/15 02:06:41;;;;;;;5.57;2.50;;;13.00;99.90;;;;;;5060086;28;20381;-94
2022/07/15 02:09:08;;;;;;;11.35;3.38;;;13.00;99.90;;;;;;5062070;28;20040;-94
2022/07/15 02:11:34;;;;;;;10.40;3.38;;;13.00;99.90;;;;;;5064069;28;20021;-94
2022/07/15 02:14:01;;;;;;;8.00;2.97;;;12.90;99.90;;;;;;5059465;28;20036;-95
2022/07/15 02:16:30;;;;;;;7.90;3.00;;;12.90;99.90;;;;;;5076370;28;20025;-95
2022/07/15 02:18:57;;;;;;;7.35;2.70;;;12.90;99.90;;;;;;5081377;28;20039;-93
2022/07/15 02:21:23;;;;;;;7.80;3.10;;;12.90;99.90;;;;;;5076378;28;20020;-94
2022/07/15 02:23:49;;;;;;;8.70;3.55;;;12.80;99.90;;;;;;5080358;28;20045;-92
2022/07/15 02:26:15;;;;;;;6.75;2.88;;;12.80;99.90;;;;;;5062444;28;20039;-94
2022/07/15 02:28:41;;;;;;;6.60;2.45;;;12.80;99.90;;;;;;5057905;28;20044;-95
2022/07/15 02:31:06;;;;;;;7.45;2.88;;;12.80;99.90;;;;;;5064061;28;20028;-94
2022/07/15 02:33:32;;;;;;;4.07;2.35;;;12.80;99.90;;;;;;5058193;28;20127;-94
2022/07/15 02:35:58;;;;;;;8.02;2.30;;;12.80;99.90;;;;;;5057374;28;20032;-93
2022/07/15 02:38:24;;;;;;;3.83;2.55;;;12.80;99.90;;;;;;5057341;28;20152;-94
2022/07/15 02:40:50;;;;;;;7.18;2.50;;;12.80;99.90;;;;;;5060135;28;20029;-95
2022/07/15 02:43:16;;;;;;;5.85;2.97;;;12.80;99.90;;;;;;5058394;28;20081;-94
2022/07/15 02:45:42;;;;;;;5.90;2.40;;;12.80;99.90;;;;;;5057335;28;20029;-94
2022/07/15 02:48:08;;;;;;;8.35;2.60;;;12.80;99.90;;;;;;5057652;28;20537;-94
2022/07/15 02:50:35;;;;;;;4.82;1.90;;;12.90;99.90;;;;;;5062161;28;20500;-93
2022/07/15 02:53:02;;;;;;;8.10;2.90;;;12.90;99.90;;;;;;5060636;28;20028;-95
2022/07/15 02:55:29;;;;;;;7.60;2.25;;;13.00;99.90;;;;;;5058788;28;20020;-94
2022/07/15 02:57:55;;;;;;;6.72;2.70;;;12.90;99.90;;;;;;5061845;28;20154;-94
2022/07/15 03:00:21;;;;;;;8.10;2.60;;;13.00;99.90;;;;;;5068817;28;20032;-94
2022/07/15 03:02:48;;;;;;;5.60;3.08;;;13.00;99.90;;;;;;5067208;28;20030;-94
2022/07/15 03:05:14;;;;;;;9.02;2.78;;;13.00;99.90;;;;;;5062377;28;20013;-96
2022/07/15 03:07:40;;;;;;;8.65;2.28;;;13.00;99.90;;;;;;5062543;28;20029;-94
2022/07/15 03:10:08;;;;;;;7.78;2.45;;;13.00;99.90;;;;;;5060526;28;20025;-94
2022/07/15 03:12:34;;;;;;;8.20;2.78;;;13.10;99.90;;;;;;5061324;28;20156;-95
2022/07/15 03:15:01;;;;;;;10.00;2.80;;;13.00;99.90;;;;;;5060023;28;20120;-94
2022/07/15 03:17:27;;;;;;;9.23;3.30;;;13.10;99.90;;;;;;5062925;28;20031;-95
2022/07/15 03:19:55;;;;;;;11.38;2.90;;;13.10;99.90;;;;;;5061437;28;20029;-96
2022/07/15 03:22:22;;;;;;;8.48;3.42;;;13.10;99.90;;;;;;5056487;28;20472;-94
2022/07/15 03:24:48;;;;;;;5.10;2.50;;;13.10;99.90;;;;;;5061677;28;20056;-95
2022/07/15 03:27:15;;;;;;;4.88;2.38;;;13.10;99.90;;;;;;5064049;28;20016;-95
2022/07/15 03:29:41;;;;;;;6.97;2.83;;;13.10;99.90;;;;;;5061801;28;20051;-95
2022/07/15 03:32:10;;;;;;;14.15;3.30;;;13.10;99.90;;;;;;5062367;28;20018;-95
2022/07/15 03:34:36;;;;;;;9.65;2.72;;;13.10;99.90;;;;;;5061767;28;20021;-95
2022/07/15 03:37:02;;;;;;;5.55;2.63;;;13.20;99.90;;;;;;5063414;28;20021;-94
2022/07/15 03:39:29;;;;;;;11.15;3.30;;;13.20;99.90;;;;;;5062399;28;20032;-95
2022/07/15 03:41:54;;;;;;;6.53;2.42;;;13.20;99.90;;;;;;5061029;28;20128;-95
2022/07/15 03:44:20;;;;;;;7.60;2.33;;;13.20;99.90;;;;;;5063269;28;20040;-94
2022/07/15 03:46:46;;;;;;;10.95;3.40;;;13.20;99.90;;;;;;5060110;28;20527;-93
2022/07/15 03:49:13;;;;;;;10.75;2.83;;;13.20;99.90;;;;;;5059871;28;20051;-94
2022/07/15 03:51:39;;;;;;;5.75;2.42;;;13.20;99.90;;;;;;5060386;28;20048;-95
2022/07/15 03:54:06;;;;;;;7.28;2.38;;;13.20;99.90;;;;;;5060498;28;20025;-96
2022/07/15 03:56:33;;;;;;;7.47;2.45;;;13.20;99.90;;;;;;5079299;28;20025;-92
2022/07/15 03:59:00;;;;;;;7.18;2.60;;;13.20;99.90;;;;;;5061291;28;20495;-95
2022/07/15 04:01:26;;;;;;;7.82;2.42;;;13.20;99.90;;;;;;5060087;28;20025;-93
2022/07/15 04:03:52;;;;;;;7.35;2.83;;;13.10;99.90;;;;;;5061513;28;20031;-93
2022/07/15 04:06:20;;;;;;;5.35;2.85;;;13.10;99.90;;;;;;5079229;28;20021;-94
2022/07/15 04:08:47;;;;;;;7.80;2.58;;;13.00;99.90;;;;;;5072062;28;20024;-94
2022/07/15 04:11:13;;;;;;;7.78;2.55;;;13.00;99.90;;;;;;5076061;28;20055;-94
2022/07/15 04:13:39;;;;;;;5.85;2.20;;;13.00;99.90;;;;;;5072496;28;20020;-94
2022/07/15 04:16:07;;;;;;;4.82;2.03;;;13.00;99.90;;;;;;5070783;28;20036;-94
2022/07/15 04:18:33;;;;;;;7.88;2.75;;;13.00;99.90;;;;;;5075158;28;20025;-94
2022/07/15 04:20:59;;;;;;;7.10;2.45;;;13.00;99.90;;;;;;5065029;28;20044;-94
2022/07/15 04:23:25;;;;;;;9.98;2.72;;;13.00;99.90;;;;;;5062783;28;20032;-94
2022/07/15 04:25:54;;;;;;;7.55;2.50;;;13.00;99.90;;;;;;5069318;28;20017;-93
2022/07/15 04:28:21;;;;;;;8.43;2.78;;;13.00;99.90;;;;;;5064262;28;20075;-92
2022/07/15 04:30:47;;;;;;;7.25;2.80;;;13.00;99.90;;;;;;5067004;28;20119;-93
2022/07/15 04:33:13;;;;;;;5.18;2.33;;;12.90;99.90;;;;;;5067086;28;20024;-94
2022/07/15 04:35:39;;;;;;;5.15;2.50;;;12.90;99.90;;;;;;5064203;28;20118;-93
2022/07/15 04:38:05;;;;;;;6.18;2.55;;;12.90;99.90;;;;;;5048729;28;20116;-93
2022/07/15 04:40:34;;;;;;;5.82;2.30;;;12.90;99.90;;;;;;5065263;28;20040;-95
2022/07/15 04:42:59;;;;;;;8.43;2.72;;;12.90;99.90;;;;;;5061795;28;20016;-94
2022/07/15 04:45:26;;;;;;;7.78;2.72;;;13.00;99.90;;;;;;5066917;28;20017;-94
2022/07/15 04:47:52;;;;;;;7.30;2.90;;;13.00;99.90;;;;;;5067272;28;20033;-94
2022/07/15 04:53:02;;;;;;;16.63;3.72;;;13.10;99.90;;;;;;5082138;28;20089;-93
2022/07/15 04:55:27;;;;;;;12.40;3.58;;;13.10;99.90;;;;;;5063615;28;20012;-94
2022/07/15 04:57:53;;;;;;;9.38;3.72;;;13.20;99.90;;;;;;5063434;28;20036;-94
2022/07/15 05:00:19;;;;;;;11.38;5.00;;;13.20;99.90;;;;;;5070557;28;20048;-94
2022/07/15 05:02:45;;;;;;;7.55;4.13;;;13.20;99.90;;;;;;5073045;28;20085;-95
2022/07/15 05:05:11;;;;;;;15.40;4.85;;;13.30;99.90;;;;;;5064316;28;20016;-94
2022/07/15 05:07:37;;;;;;;8.05;3.83;;;13.30;99.90;;;;;;5063208;28;20024;-94
2022/07/15 05:10:04;;;;;;;7.78;3.65;;;13.30;99.90;;;;;;5063403;28;20025;-94
2022/07/15 05:12:30;;;;;;;7.07;3.80;;;13.40;99.90;;;;;;5059566;28;20026;-95
2022/07/15 05:14:56;;;;;;;9.82;3.92;;;13.40;99.90;;;;;;5063760;28;20431;-94
2022/07/15 05:17:21;;;;;;;14.70;3.58;;;13.40;99.90;;;;;;5068405;28;20021;-94
2022/07/15 05:19:47;;;;;;;11.32;4.43;;;13.50;99.90;;;;;;5070093;28;20043;-91
2022/07/15 05:22:13;;;;;;;11.43;3.42;;;13.50;99.90;;;;;;5085274;28;20043;-90
2022/07/15 05:24:39;;;;;;;12.50;3.42;;;13.50;99.90;;;;;;5081556;28;20048;-95
2022/07/15 05:27:04;;;;;;;14.70;3.47;;;13.60;99.90;;;;;;5074936;28;20074;-93
2022/07/15 05:29:30;;;;;;;13.98;4.10;;;13.60;99.90;;;;;;5076319;28;20097;-92
2022/07/15 05:31:56;;;;;;;8.80;3.40;;;13.70;99.90;;;;;;5069634;28;20074;-93
2022/07/15 05:34:21;;;;;;;12.82;2.88;;;13.70;99.90;;;;;;5067383;28;20031;-93
2022/07/15 05:36:47;;;;;;;8.75;3.15;;;13.70;99.90;;;;;;5060855;28;20016;-94
2022/07/15 05:39:13;;;;;;;4.63;2.60;;;13.80;99.90;;;;;;5064630;28;20029;-94
2022/07/15 05:41:39;;;;;;;11.00;2.75;;;13.80;99.90;;;;;;5066186;28;20142;-93
2022/07/15 05:44:07;;;;;;;9.88;3.17;;;13.90;99.90;;;;;;5062070;28;20021;-94
2022/07/15 05:46:32;;;;;;;9.15;2.50;;;13.90;99.90;;;;;;5059848;28;20027;-91
2022/07/15 05:48:58;;;;;;;9.13;2.90;;;13.90;99.90;;;;;;5069939;28;20483;-94
2022/07/15 05:51:24;;;;;;;13.73;2.97;;;13.90;99.90;;;;;;5059561;28;20024;-94
2022/07/15 05:53:49;;;;;;;8.55;2.88;;;14.00;99.90;;;;;;5075086;28;20039;-91
2022/07/15 05:56:15;;;;;;;11.00;2.80;;;14.00;99.90;;;;;;5079408;28;20036;-88
2022/07/15 05:58:41;;;;;;;6.30;2.92;;;14.00;99.90;;;;;;5079251;28;20032;-94
2022/07/15 06:01:07;;;;;;;11.48;3.30;;;14.00;99.90;;;;;;5078073;28;20038;-92
2022/07/15 06:03:32;;;;;;;9.70;3.38;;;14.10;99.90;;;;;;5078656;28;20089;-91
2022/07/15 06:05:59;;;;;;;9.98;3.67;;;14.10;99.90;;;;;;5073734;28;20056;-93
2022/07/15 06:08:25;;;;;;;6.15;2.80;;;14.20;99.90;;;;;;5068004;28;20037;-93
2022/07/15 06:10:51;;;;;;;9.63;2.70;;;14.20;99.90;;;;;;5066057;28;20388;-93
2022/07/15 06:13:21;;;;;;;9.85;3.65;;;14.20;99.90;;;;;;5061972;28;20456;-95
2022/07/15 06:15:48;;;;;;;7.60;3.20;;;14.30;99.90;;;;;;5070467;28;20044;-93
2022/07/15 06:18:13;;;;;;;12.07;3.38;;;14.30;99.90;;;;;;5062870;28;20017;-92
2022/07/15 06:20:39;;;;;;;11.10;3.38;;;14.40;99.90;;;;;;5063333;28;20031;-95
2022/07/15 06:23:05;;;;;;;15.90;3.80;;;14.40;99.90;;;;;;5061995;28;20024;-93
2022/07/15 06:25:32;;;;;;;10.73;4.30;;;14.40;99.90;;;;;;5059987;28;20119;-92
2022/07/15 06:27:57;;;;;;;11.98;3.65;;;14.40;99.90;;;;;;5066981;28;20031;-92
2022/07/15 06:30:23;;;;;;;4.97;3.10;;;14.40;99.90;;;;;;5059767;28;20687;-93
2022/07/15 06:32:49;;;;;;;7.43;2.92;;;14.50;99.90;;;;;;5064985;28;20090;-91
2022/07/15 06:35:15;;;;;;;5.10;2.90;;;14.50;99.90;;;;;;5066828;28;20032;-92
2022/07/15 06:37:40;;;;;;;5.70;1.88;;;14.60;99.90;;;;;;5065486;28;20050;-92
2022/07/15 06:40:07;;;;;;;6.75;2.03;;;14.60;99.90;;;;;;5064563;28;20463;-91
2022/07/15 06:42:33;;;;;;;5.20;1.70;;;14.60;99.90;;;;;;5062979;28;20024;-92
2022/07/15 06:44:59;;;;;;;4.97;2.05;;;14.60;99.90;;;;;;5065450;28;20016;-93
2022/07/15 06:47:24;;;;;;;10.20;2.20;;;14.70;99.90;;;;;;5063129;28;20025;-92
2022/07/15 06:49:50;;;;;;;4.65;1.70;;;14.80;99.90;;;;;;5060083;28;20031;-92
2022/07/15 06:52:17;;;;;;;11.88;2.45;;;14.80;99.90;;;;;;5065152;28;20031;-92
2022/07/15 06:54:43;;;;;;;7.22;1.83;;;15.00;99.90;;;;;;5062991;28;20013;-93
2022/07/15 06:57:09;;;;;;;5.15;1.90;;;15.20;99.90;;;;;;5062923;28;20074;-92
2022/07/15 06:59:35;;;;;;;3.67;1.70;;;15.40;99.90;;;;;;5062940;28;20566;-92
2022/07/15 07:02:01;;;;;;;5.85;1.70;;;15.60;99.90;;;;;;5063614;28;20021;-93
2022/07/15 07:04:27;;;;;;;3.95;1.38;;;15.80;99.90;;;;;;5064779;28;20104;-93
2022/07/15 07:06:52;;;;;;;7.28;1.90;;;16.00;99.90;;;;;;5058288;28;20487;-94
2022/07/15 07:09:18;;;;;;;6.88;1.50;;;16.10;99.90;;;;;;5062664;28;20079;-94
2022/07/15 07:11:44;;;;;;;4.88;1.55;;;16.20;99.90;;;;;;5057945;28;20115;-94
2022/07/15 07:14:10;;;;;;;4.97;1.73;;;16.30;99.90;;;;;;5058421;28;20086;-94
2022/07/15 07:16:35;;;;;;;9.25;1.60;;;16.30;99.90;;;;;;5057480;28;20017;-94
2022/07/15 07:19:01;;;;;;;9.10;1.77;;;16.30;99.90;;;;;;5059473;28;20036;-94
2022/07/15 07:21:27;;;;;;;7.55;1.67;;;16.40;99.90;;;;;;5067017;28;20032;-94
2022/07/15 07:23:53;;;;;;;8.43;1.60;;;16.40;99.90;;;;;;5059240;28;20059;-93
2022/07/15 07:26:18;;;;;;;10.07;1.63;;;16.50;99.90;;;;;;5061711;28;20376;-87
2022/07/15 07:28:45;;;;;;;7.50;1.73;;;16.50;99.90;;;;;;5085875;28;20044;-92
2022/07/15 07:31:13;;;;;;;4.63;1.73;;;16.60;99.90;;;;;;5060067;28;20024;-94
2022/07/15 07:33:39;;;;;;;6.10;2.13;;;16.60;99.90;;;;;;5063935;28;20029;-94
2022/07/15 07:36:06;;;;;;;4.90;1.80;;;16.60;99.90;;;;;;5062080;28;20062;-93
2022/07/15 07:38:33;;;;;;;8.88;1.65;;;16.60;99.90;;;;;;5057231;28;20024;-93
2022/07/15 07:41:00;;;;;;;6.38;2.03;;;16.60;99.90;;;;;;5058099;28;20112;-92
2022/07/15 07:43:25;;;;;;;12.60;2.13;;;16.50;99.90;;;;;;5060081;28;20048;-94
2022/07/15 07:45:51;;;;;;;7.15;1.90;;;16.50;99.90;;;;;;5061094;28;20022;-95
2022/07/15 07:48:19;;;;;;;7.95;2.22;;;16.50;99.90;;;;;;5067966;28;20375;-93
2022/07/15 07:50:44;;;;;;;12.40;2.28;;;16.40;99.90;;;;;;5080183;28;20024;-93
2022/07/15 07:53:11;;;;;;;3.17;1.70;;;16.30;99.90;;;;;;5087463;28;20055;-94
2022/07/15 07:55:42;;;;;;;7.82;2.70;;;16.30;99.90;;;;;;5077149;28;20033;-91
2022/07/15 07:58:08;;;;;;;7.82;2.35;;;16.30;99.90;;;;;;5075783;28;20024;-93
2022/07/15 08:00:34;;;;;;;8.10;2.60;;;16.20;99.90;;;;;;5074039;28;20026;-92
2022/07/15 08:03:01;;;;;;;8.25;3.45;;;16.20;99.90;;;;;;5078005;28;20040;-93
2022/07/15 08:05:28;;;;;;;12.88;2.60;;;16.10;99.90;;;;;;5072713;28;20044;-93
2022/07/15 08:08:14;;;;;;;7.25;2.60;;;16.10;99.90;;;;;;5070882;28;20155;-95
2022/07/15 08:10:42;;;;;;;9.00;2.50;;;16.20;99.90;;;;;;5067205;28;20024;-93
2022/07/15 08:13:07;;;;;;;8.48;2.50;;;16.20;99.90;;;;;;5083800;28;20017;-93
2022/07/15 08:15:33;;;;;;;9.38;2.42;;;16.30;99.90;;;;;;5084746;28;20043;-94
2022/07/15 08:18:00;;;;;;;3.88;2.40;;;16.30;99.90;;;;;;5073804;28;20032;-94
2022/07/15 08:20:25;;;;;;;6.78;2.60;;;16.30;99.90;;;;;;5076629;28;20028;-95
2022/07/15 08:22:58;;;;;;;10.50;2.70;;;16.30;99.90;;;;;;5093753;28;20028;-94
2022/07/15 08:25:25;;;;;;;7.63;2.70;;;16.30;99.90;;;;;;5076536;28;20031;-91
2022/07/15 08:27:51;;;;;;;5.30;2.60;;;16.30;99.90;;;;;;5088195;28;20056;-91
2022/07/15 08:30:17;;;;;;;13.35;3.25;;;16.40;99.90;;;;;;5094710;28;20055;-91
2022/07/15 08:32:42;;;;;;;6.63;2.35;;;16.50;99.90;;;;;;5089440;28;20013;-91
2022/07/15 08:35:08;;;;;;;8.77;2.53;;;16.50;99.90;;;;;;5098893;28;20012;-90
2022/07/15 08:37:34;;;;;;;11.13;2.67;;;16.50;99.90;;;;;;5089351;28;20108;-88
2022/07/15 08:40:00;;;;;;;9.23;2.83;;;16.50;99.90;;;;;;5069547;28;20025;-93
2022/07/15 08:42:26;;;;;;;7.15;3.17;;;16.50;99.90;;;;;;5064344;28;20467;-95
2022/07/15 08:44:53;;;;;;;6.28;2.53;;;16.60;99.90;;;;;;5064003;28;20028;-94
2022/07/15 08:47:21;;;;;;;8.00;2.33;;;16.60;99.90;;;;;;5080110;28;20032;-92
2022/07/15 08:49:49;;;;;;;5.57;2.70;;;16.60;99.90;;;;;;5067378;28;20039;-92
2022/07/15 08:52:16;;;;;;;6.50;2.40;;;16.50;99.90;;;;;;5062920;28;20024;-93
2022/07/15 08:54:42;;;;;;;7.20;2.30;;;16.50;99.90;;;;;;5060781;28;20450;-93
2022/07/15 08:57:07;;;;;;;3.72;1.80;;;16.50;99.90;;;;;;5060475;28;20021;-92
2022/07/15 08:59:33;;;;;;;7.97;2.08;;;16.50;99.90;;;;;;5060229;28;20407;-92
2022/07/15 09:01:59;;;;;;;8.00;2.50;;;16.50;99.90;;;;;;5059819;28;20433;-90
2022/07/15 09:04:24;;;;;;;8.38;2.38;;;16.50;99.90;;;;;;5061104;28;20025;-92
2022/07/15 09:06:51;;;;;;;10.48;2.70;;;16.50;99.90;;;;;;5065560;28;20017;-92
2022/07/15 09:09:31;;;;;;;8.35;2.28;;;16.50;99.90;;;;;;5063846;28;20043;-92
2022/07/15 09:11:57;;;;;;;;;;;16.50;99.90;;;;;;5063872;28;20025;-91
2022/07/15 09:14:25;;;;;;;6.68;2.75;;;16.60;99.90;;;;;;5062751;28;19993;-91
2022/07/15 09:17:09;;;;;;;6.97;2.55;;;16.60;99.90;;;;;;5067196;28;20024;-91
2022/07/15 09:19:58;;;;;;;5.85;2.20;;;16.70;99.90;;;;;;5067137;28;20057;-92
2022/07/15 09:22:26;;;;;;;12.30;2.38;;;16.80;99.90;;;;;;5079596;28;20052;-91
2022/07/15 09:25:08;;;;;;;5.53;2.50;;;16.80;99.90;;;;;;5058768;28;20020;-92
2022/07/15 09:27:37;;;;;;;5.90;2.30;;;16.80;99.90;;;;;;5052238;28;20043;-92
2022/07/15 09:36:16;;;;;;;8.00;2.20;;;16.80;99.90;;;;;;5064784;28;20049;-94
2022/07/15 09:38:45;;;;;;;5.95;1.92;;;16.90;99.90;;;;;;5058537;28;20028;-93
2022/07/15 09:41:28;;;;;;;12.07;2.40;;;16.90;99.90;;;;;;5056044;28;20037;-91
2022/07/15 09:44:13;;;;;;;8.65;2.55;;;17.10;99.90;;;;;;5056611;28;20058;-91
2022/07/15 09:46:44;;;;;;;9.00;2.33;;;17.30;99.90;;;;;;5056924;28;20024;-92
2022/07/15 09:49:11;;;;;;;8.65;1.98;;;17.60;99.90;;;;;;5057734;28;20074;-91
2022/07/15 09:51:55;;;;;;;6.05;2.20;;;17.90;99.90;;;;;;5057858;28;20060;-92
2022/07/15 09:54:26;;;;;;;6.95;1.95;;;18.10;99.90;;;;;;5057721;28;20114;-93
2022/07/15 09:56:52;;;;;;;8.32;2.10;;;18.30;99.90;;;;;;5057994;28;20025;-92
2022/07/15 09:59:19;;;;;;;7.72;2.08;;;18.50;99.90;;;;;;5057981;28;20017;-91
2022/07/15 10:01:47;;;;;;;7.90;2.15;;;18.80;99.90;;;;;;5059953;28;20359;-93
2022/07/15 10:04:19;;;;;;;3.30;1.70;;;19.00;99.70;;;;;;5057974;28;20028;-93
2022/07/15 10:06:48;;;;;;;4.75;2.00;;;19.20;98.30;;;;;;5060449;28;20099;-93
2022/07/15 10:09:14;;;;;;;5.22;1.67;;;19.50;97.50;;;;;;5058864;28;20143;-92
2022/07/15 10:11:48;;;;;;;6.43;1.95;;;19.50;96.20;;;;;;5054517;28;20493;-91
2022/07/15 10:14:42;;;;;;;7.53;2.85;;;19.50;95.40;;;;;;5057488;28;20025;-94
2022/07/15 10:17:45;;;;;;;7.97;2.55;;;19.50;95.10;;;;;;5057935;28;20517;-93
2022/07/15 10:20:20;;;;;;;6.35;2.20;;;19.50;94.50;;;;;;5053972;28;20043;-94
2022/07/15 10:22:58;;;;;;;4.53;1.70;;;19.50;94.20;;;;;;5058388;28;20552;-95
2022/07/15 10:25:51;;;;;;;5.43;2.20;;;19.40;94.10;;;;;;5080812;28;20069;-92
2022/07/15 10:28:44;;;;;;;6.78;2.10;;;19.30;93.70;;;;;;5057747;28;20036;-94
2022/07/15 10:31:16;;;;;;;5.88;2.28;;;19.20;93.70;;;;;;5055595;28;20044;-94
2022/07/15 10:33:42;;;;;;;4.03;1.98;;;19.10;93.90;;;;;;5056936;28;20028;-93
2022/07/15 10:36:08;;;;;;;4.30;2.10;;;19.10;94.20;;;;;;5056700;28;20025;-93
2022/07/15 10:38:40;;;;;;;5.95;2.25;;;19.00;94.40;;;;;;5057146;28;20064;-92
2022/07/15 10:41:16;;;;;;;2.75;2.08;;;19.00;94.70;;;;;;5059266;28;20043;-94
2022/07/15 10:43:48;;;;;;;7.32;2.22;;;19.00;94.70;;;;;;5060199;28;20039;-93
2022/07/15 10:46:17;;;;;;;6.32;2.03;;;18.90;95.10;;;;;;5052508;28;20031;-91
2022/07/15 10:49:11;;;;;;;6.53;2.47;;;18.80;95.30;;;;;;5050577;28;20033;-93
2022/07/15 10:51:37;;;;;;;3.30;2.00;;;18.80;95.60;;;;;;5014774;28;20040;-92
2022/07/15 10:54:30;;;;;;;5.88;1.92;;;18.80;96.10;;;;;;5047695;28;20116;-90
2022/07/15 10:56:56;;;;;;;7.07;2.50;;;18.90;96.40;;;;;;5048326;28;20124;-93
2022/07/15 10:59:24;;;;;;;8.38;3.03;;;19.00;96.50;;;;;;5050440;28;20052;-92
2022/07/15 11:02:00;;;;;;;5.40;2.55;;;19.20;96.50;;;;;;5049947;28;20404;-91
2022/07/15 11:04:28;;;;;;;4.70;2.30;;;19.30;96.30;;;;;;5057325;28;20373;-93
2022/07/15 11:07:12;;;;;;;9.73;2.67;;;19.50;95.90;;;;;;5057562;28;20063;-92
2022/07/15 11:09:53;;;;;;;8.10;2.28;;;19.60;95.90;;;;;;5060055;28;20048;-92
2022/07/15 11:12:29;;;;;;;6.72;2.78;;;19.90;95.60;;;;;;5057195;28;20445;-92
2022/07/15 11:15:00;;;;;;;4.95;2.20;;;20.00;95.20;;;;;;5057168;28;20331;-92
2022/07/15 11:17:29;;;;;;;9.55;2.90;;;20.00;94.80;;;;;;5058155;28;20073;-92
2022/07/15 11:19:58;;;;;;;5.60;2.00;;;20.00;94.80;;;;;;5057609;28;20021;-93
2022/07/15 11:22:26;;;;;;;5.90;2.35;;;20.00;94.80;;;;;;5059542;28;20043;-94
2022/07/15 11:24:53;;;;;;;6.85;2.17;;;19.90;94.50;;;;;;5072558;28;20025;-90
2022/07/15 11:27:24;;;;;;;3.58;1.83;;;19.90;94.60;;;;;;5072168;28;20020;-91
2022/07/15 11:29:59;;;;;;;7.60;1.60;;;20.00;94.60;;;;;;5059241;28;20074;-93
2022/07/15 11:32:25;;;;;;;5.35;1.70;;;20.20;94.30;;;;;;5060943;28;20021;-93
2022/07/15 11:34:57;;;;;;;7.45;1.75;;;20.50;93.60;;;;;;5060671;28;20120;-91
2022/07/15 11:37:33;;;;;;;3.58;1.77;;;20.90;92.40;;;;;;5059008;28;20025;-91
2022/07/15 11:45:49;;;;;;;2.33;1.58;;;21.00;89.90;;;;;;5084878;28;20067;-91
2022/07/15 11:48:15;;;;;;;4.57;1.50;;;20.90;89.00;;;;;;5065530;28;20029;-91
2022/07/15 11:50:56;;;;;;;2.30;1.40;;;20.70;88.40;;;;;;5070935;28;20025;-92
2022/07/15 11:53:23;;;;;;;6.00;1.70;;;20.70;88.60;;;;;;5070732;28;20029;-92
2022/07/15 11:55:58;;;;;;;4.80;1.80;;;20.60;88.80;;;;;;5071938;28;20020;-92
2022/07/15 11:58:33;;;;;;;6.10;1.50;;;20.50;89.40;;;;;;5066305;28;20029;-92
2022/07/15 12:01:01;;;;;;;5.75;1.77;;;20.50;89.90;;;;;;5065930;28;20080;-92
2022/07/15 12:03:36;;;;;;;4.35;1.65;;;20.40;90.00;;;;;;5074482;28;20021;-93
2022/07/15 12:06:05;;;;;;;5.07;1.85;;;20.30;89.80;;;;;;5064358;28;20035;-92
2022/07/15 12:08:46;;;;;;;4.00;1.58;;;20.30;89.70;;;;;;5061733;28;20094;-93
2022/07/15 12:11:33;;;;;;;7.53;1.90;;;20.50;89.60;;;;;;5057251;28;20021;-95
2022/07/15 12:14:08;;;;;;;6.78;1.70;;;20.70;88.90;;;;;;5076836;28;20029;-92
2022/07/15 12:16:39;;;;;;;2.80;1.20;;;20.80;87.30;;;;;;5060614;28;20044;-92
2022/07/15 12:19:22;;;;;;;2.00;1.45;;;20.80;85.70;;;;;;5052999;28;20070;-92
2022/07/15 12:21:50;;;;;;;1.90;1.15;;;20.70;84.80;;;;;;5060620;28;20138;-93
2022/07/15 12:24:23;;;;;;;3.25;1.42;;;20.70;84.50;;;;;;5058870;28;20433;-93
2022/07/15 12:26:54;;;;;;;4.13;1.75;;;20.70;84.70;;;;;;5058641;28;20035;-91
2022/07/15 12:29:24;;;;;;;2.35;1.40;;;20.90;84.70;;;;;;5054465;28;20129;-92
2022/07/15 12:31:55;;;;;;;2.78;1.30;;;21.00;83.80;;;;;;5053455;28;20024;-93
2022/07/15 12:34:22;;;;;;;2.58;1.40;;;21.00;82.20;;;;;;5055224;28;20028;-93
2022/07/15 12:36:56;;;;;;;2.45;1.10;;;21.00;81.60;;;;;;5054391;28;20480;-94
2022/07/15 12:39:22;;;;;;;3.33;1.17;;;21.00;80.00;;;;;;5053936;28;20040;-93
2022/07/15 12:42:00;;;;;;;3.80;1.38;;;21.10;79.50;;;;;;5054336;28;21487;-92
2022/07/15 12:44:27;;;;;;;4.65;1.50;;;21.30;78.70;;;;;;5043237;28;20033;-94
2022/07/15 12:47:03;;;;;;;2.17;1.40;;;21.30;77.70;;;;;;5050192;28;20082;-94
2022/07/15 12:49:42;;;;;;;2.95;1.60;;;21.40;77.60;;;;;;5056473;28;20496;-93
2022/07/15 12:52:12;;;;;;;3.00;1.35;;;21.40;76.80;;;;;;5060819;28;20204;-93
2022/07/15 12:54:38;;;;;;;3.47;1.60;;;21.30;76.30;;;;;;5061900;28;20077;-93
2022/07/15 12:57:04;;;;;;;4.00;1.77;;;21.20;76.50;;;;;;5073681;28;20021;-92
2022/07/15 12:59:29;;;;;;;3.30;1.67;;;21.20;77.00;;;;;;5077599;28;20021;-91
2022/07/15 13:02:03;;;;;;;2.42;1.55;;;21.20;77.00;;;;;;5077486;28;20017;-90
2022/07/15 13:04:29;;;;;;;2.38;1.52;;;21.10;77.40;;;;;;5074147;28;20056;-94
2022/07/15 13:06:55;;;;;;;3.17;1.70;;;21.00;77.70;;;;;;5062377;28;20037;-92